Observations for BARCELONA AIRPORT, Spain (LEBL)

LEBL 140830Z 32003KT 270V020 9999 FEW020 SCT046 25/20 Q1016 NOSIG   
LEBL 140800Z 31005KT 9999 FEW020 BKN046 25/21 Q1017 NOSIG   
LEBL 140730Z 32004KT 9999 FEW020 BKN046 24/20 Q1016 NOSIG   
LEBL 140700Z 33004KT 9999 FEW020 BKN046 23/20 Q1016 NOSIG   
LEBL 140630Z 33004KT 9999 FEW020 BKN046 23/20 Q1016 NOSIG   
LEBL 140600Z 32005KT 9999 FEW020 22/20 Q1016 NOSIG  
LEBL 140530Z 33007G17KT 250V350 9999 FEW020 22/21 Q1016 NOSIG   
LEBL 140500Z 32008KT 9999 FEW020 SCT047 22/21 Q1015 NOSIG   
LEBL 140430Z 33006KT 9999 FEW015 22/21 Q1015 NOSIG  
LEBL 140400Z 33005KT 9999 FEW015 22/21 Q1014 NOSIG  
LEBL 140330Z 33004KT 9999 FEW015 22/21 Q1014 NOSIG  
LEBL 140300Z 33005KT 9999 FEW020 22/20 Q1014 NOSIG  
LEBL 140230Z 32004KT 9999 FEW020 22/20 Q1015 NOSIG  
LEBL 140200Z 01003KT 9999 FEW020 FEW025CB 23/21 Q1014 RERA TEMPO 4000 TSRA  
LEBL 140130Z 02006KT 9999 FEW020 FEW025CB 24/20 Q1015 RERA TEMPO 4000 TSRA  
LEBL 140116Z 04010KT 9999 -RA VCTS FEW018 FEW025CB 24/20 Q1015 TEMPO 4000 TSRA
LEBL 140100Z 06008KT 020V110 7000 RA VCTS FEW018 FEW025CB 24/21 Q1015 TEMPO 4000 TSRA   
LEBL 140030Z 05006KT 020V080 9999 -RA FEW018 FEW025CB 25/19 Q1015 TEMPO 4000 TSRA   
LEBL 140000Z 07008KT 9999 FEW018 FEW025CB 25/19 Q1015 TEMPO 4000 TSRA   
LEBL 132330Z 06009KT 9999 FEW030 25/21 Q1015 NOSIG  
LEBL 132300Z 06007KT 9999 FEW030 25/21 Q1014 NOSIG  
LEBL 132230Z 06008KT 9999 FEW025 25/21 Q1014 NOSIG  
LEBL 132200Z 07007KT 9999 FEW025 25/21 Q1014 NOSIG  
LEBL 132130Z 07011KT 9999 FEW028 26/21 Q1014 NOSIG  
LEBL 132100Z 07011KT 9999 FEW025 26/21 Q1014 NOSIG  
LEBL 132030Z 07013KT 9999 FEW020 SCT023 25/21 Q1014 NOSIG   
LEBL 132000Z 07012KT 9999 SCT021 26/22 Q1013 NOSIG  
LEBL 131930Z 06012KT 9999 FEW015 25/22 Q1012 NOSIG  
LEBL 131900Z 06012KT 9999 FEW015 25/23 Q1012 NOSIG  
LEBL 131830Z 07011KT 9999 FEW015 26/23 Q1012 NOSIG  
LEBL 131800Z 08009KT 030V100 9999 FEW015 27/23 Q1012 NOSIG  
LEBL 131730Z 07008KT 040V110 9999 FEW015 28/22 Q1012 NOSIG  
LEBL 131700Z 09006KT 050V130 9999 FEW020 28/22 Q1011 NOSIG  
LEBL 131630Z 10006KT 070V130 9999 FEW025 28/23 Q1012 NOSIG  
LEBL 131600Z 10006KT 9999 FEW025 27/22 Q1012 NOSIG  
LEBL 131530Z 11008KT 9999 FEW020 27/22 Q1012 NOSIG  
LEBL 131500Z 11007KT 070V150 9999 FEW020 29/22 Q1012 NOSIG  
LEBL 131430Z 11007KT 080V160 9999 FEW025 28/22 Q1012 NOSIG  
LEBL 131400Z 09009KT 060V120 9999 FEW020 28/22 Q1013 NOSIG  
LEBL 131330Z 11010KT 9999 FEW020 28/22 Q1013 NOSIG  
LEBL 131300Z 09010KT 9999 FEW020 28/22 Q1013 NOSIG  
LEBL 131230Z 10010KT 9999 FEW020 28/22 Q1013 NOSIG  
LEBL 131200Z 09012KT 9999 FEW020 28/23 Q1013 NOSIG  
LEBL 131130Z 09011KT 9999 FEW020 28/22 Q1014 NOSIG  
LEBL 131100Z 08010KT 060V130 9999 FEW020 28/23 Q1014 NOSIG  
LEBL 131030Z 08012KT 9999 FEW020 28/23 Q1014 NOSIG  
LEBL 131000Z 07012KT 030V090 9999 FEW040 28/22 Q1014 NOSIG  
LEBL 130930Z 07012KT 9999 FEW020 27/21 Q1014 NOSIG  
LEBL 130900Z 08010KT 9999 SCT020 29/21 Q1014 NOSIG  
LEBL 130830Z VRB02KT 9999 SCT020 28/20 Q1013 NOSIG  
LEBL 130800Z 03003KT 320V100 9999 SCT020 27/19 Q1013 NOSIG